Time;durP1;ratioP1;P1;durP2;ratioP2;P2;SDS_P1;SDS_P2;PMS_P1;PMS_P2;Temp;Humidity;BMP_temperature;BMP_pressure;BME280_temperature;BME280_humidity;BME280_pressure;Samples;Min_cycle;Max_cycle;Signal;HPM_P1;HPM_P2
2022/07/16 00:02:20;;;;;;;3.35;1.50;;;9.40;99.90;;;;;;4956168;29;20086;-75
2022/07/16 00:04:47;;;;;;;4.05;1.80;;;9.50;99.90;;;;;;4955714;29;20544;-76
2022/07/16 00:07:15;;;;;;;2.92;1.63;;;9.70;99.90;;;;;;4954631;28;20138;-76
2022/07/16 00:09:42;;;;;;;3.88;1.88;;;9.70;99.90;;;;;;4955587;29;20027;-76
2022/07/16 00:12:10;;;;;;;1.98;1.42;;;9.80;99.90;;;;;;4938241;29;20031;-76
2022/07/16 00:14:37;;;;;;;2.65;1.67;;;9.80;99.90;;;;;;4938254;29;20492;-75
2022/07/16 00:17:04;;;;;;;2.38;1.35;;;9.90;99.90;;;;;;4955462;29;20027;-75
2022/07/16 00:19:32;;;;;;;2.33;1.33;;;9.90;99.90;;;;;;4938099;29;20452;-76
2022/07/16 00:21:59;;;;;;;7.00;2.78;;;9.90;99.90;;;;;;4955701;29;20122;-76
2022/07/16 00:24:27;;;;;;;6.65;3.33;;;9.90;99.90;;;;;;4955360;29;20023;-75
2022/07/16 00:26:55;;;;;;;8.52;3.20;;;9.90;99.90;;;;;;4955257;29;20020;-75
2022/07/16 00:29:22;;;;;;;6.35;3.03;;;9.90;99.90;;;;;;4938036;29;20035;-76
2022/07/16 00:31:51;;;;;;;5.15;2.70;;;10.00;99.90;;;;;;4955203;29;20031;-76
2022/07/16 00:34:19;;;;;;;5.45;2.88;;;10.10;99.90;;;;;;4955422;29;20114;-76
2022/07/16 00:36:47;;;;;;;4.40;2.05;;;10.20;99.90;;;;;;4937851;29;20472;-75
2022/07/16 00:39:16;;;;;;;2.65;1.60;;;10.40;99.90;;;;;;4955202;29;20477;-76
2022/07/16 00:41:46;;;;;;;2.40;1.45;;;10.50;99.90;;;;;;4955089;29;20046;-76
2022/07/16 00:44:17;;;;;;;2.20;1.42;;;10.50;99.90;;;;;;4937784;29;20024;-76
2022/07/16 00:46:46;;;;;;;2.38;1.15;;;10.60;99.90;;;;;;4937768;29;20511;-76
2022/07/16 00:49:15;;;;;;;3.35;1.30;;;10.80;99.90;;;;;;4937711;29;20392;-75
2022/07/16 00:51:49;;;;;;;3.72;1.45;;;10.90;99.90;;;;;;4937447;29;20050;-75
2022/07/16 00:54:16;;;;;;;3.00;1.20;;;11.10;99.90;;;;;;4954944;29;20109;-75
2022/07/16 00:56:44;;;;;;;2.47;1.35;;;11.20;99.90;;;;;;4954780;29;20024;-75
2022/07/16 00:59:12;;;;;;;2.15;1.20;;;11.40;99.90;;;;;;4937557;29;20019;-76
2022/07/16 01:01:40;;;;;;;1.70;1.30;;;11.60;99.90;;;;;;4954813;29;20023;-76
2022/07/16 01:04:10;;;;;;;2.88;1.35;;;11.70;99.90;;;;;;4954803;29;20503;-75
2022/07/16 01:06:37;;;;;;;3.80;1.15;;;12.00;99.90;;;;;;4954481;29;20511;-75
2022/07/16 01:09:05;;;;;;;2.33;1.25;;;12.10;99.90;;;;;;4954982;29;20027;-75
2022/07/16 01:11:34;;;;;;;3.65;1.50;;;12.30;99.90;;;;;;4955371;29;20031;-75
2022/07/16 01:14:02;;;;;;;2.38;1.75;;;12.50;99.90;;;;;;4937411;29;20109;-74
2022/07/16 01:16:30;;;;;;;2.50;1.33;;;12.50;99.90;;;;;;4937438;29;20020;-76
2022/07/16 01:18:57;;;;;;;2.65;1.27;;;12.70;99.90;;;;;;4960378;28;20023;-75
2022/07/16 01:21:25;;;;;;;3.40;1.58;;;12.60;99.90;;;;;;4961124;29;20031;-76
2022/07/16 01:23:52;;;;;;;1.65;1.27;;;12.70;99.90;;;;;;4961003;28;20023;-75
2022/07/16 01:26:20;;;;;;;4.00;1.40;;;12.80;99.90;;;;;;4943677;29;20055;-76
2022/07/16 01:28:47;;;;;;;3.05;1.15;;;12.90;99.90;;;;;;4943514;29;20440;-75
2022/07/16 01:31:14;;;;;;;2.47;1.45;;;13.00;99.90;;;;;;4943302;29;20030;-76
2022/07/16 01:33:43;;;;;;;1.95;0.93;;;13.20;99.90;;;;;;4960843;28;20036;-76
2022/07/16 01:36:13;;;;;;;1.65;0.80;;;13.10;99.90;;;;;;4961252;28;20484;-76
2022/07/16 01:38:45;;;;;;;1.85;0.95;;;13.10;99.90;;;;;;4961013;29;20062;-76
2022/07/16 01:41:13;;;;;;;2.13;0.82;;;13.10;99.90;;;;;;4943584;29;20125;-75
2022/07/16 01:43:41;;;;;;;2.28;0.95;;;13.30;99.90;;;;;;4960984;29;20081;-75
2022/07/16 01:46:09;;;;;;;1.38;1.08;;;13.30;99.90;;;;;;4960821;29;20476;-76
2022/07/16 01:48:36;;;;;;;1.73;1.30;;;13.50;99.90;;;;;;4943451;29;20110;-76
2022/07/16 01:51:03;;;;;;;1.30;1.08;;;13.70;99.90;;;;;;4960817;29;20033;-75
2022/07/16 01:53:31;;;;;;;3.42;1.60;;;13.70;99.90;;;;;;4960733;29;20054;-75
2022/07/16 01:56:00;;;;;;;7.78;1.70;;;13.80;99.90;;;;;;4960841;29;20031;-76
2022/07/16 01:58:28;;;;;;;1.92;1.50;;;13.90;99.90;;;;;;4960658;29;20050;-76
2022/07/16 02:00:55;;;;;;;3.72;1.60;;;14.00;99.90;;;;;;4943504;29;20026;-75
2022/07/16 02:03:22;;;;;;;1.92;1.08;;;14.10;99.90;;;;;;4943309;29;20054;-75
2022/07/16 02:05:50;;;;;;;2.70;1.15;;;14.10;99.90;;;;;;4960577;28;20051;-75
2022/07/16 02:08:17;;;;;;;2.00;1.08;;;14.00;99.90;;;;;;4943347;29;20031;-74
2022/07/16 02:10:45;;;;;;;1.33;1.10;;;13.90;99.90;;;;;;4943373;29;20034;-74
2022/07/16 02:13:12;;;;;;;3.13;1.25;;;13.90;99.90;;;;;;4960581;29;20027;-74
2022/07/16 02:15:39;;;;;;;2.80;1.63;;;14.00;99.90;;;;;;4960670;29;20034;-74
2022/07/16 02:18:07;;;;;;;2.35;1.05;;;14.20;99.90;;;;;;4960590;29;20027;-74
2022/07/16 02:20:34;;;;;;;1.35;1.00;;;14.10;99.90;;;;;;4961029;28;20027;-74
2022/07/16 02:23:01;;;;;;;1.80;1.17;;;14.10;99.90;;;;;;4961183;29;20031;-74
2022/07/16 02:25:29;;;;;;;5.60;1.17;;;14.10;99.90;;;;;;4960348;29;20027;-75
2022/07/16 02:28:08;;;;;;;1.52;1.08;;;14.20;99.90;;;;;;4960504;29;20015;-74
2022/07/16 02:30:47;;;;;;;1.55;1.15;;;14.30;99.90;;;;;;4939318;29;20091;-74
2022/07/16 02:33:18;;;;;;;2.13;1.08;;;14.40;99.90;;;;;;4957356;29;20031;-74
2022/07/16 02:35:46;;;;;;;2.60;1.20;;;14.50;99.90;;;;;;4957559;29;20353;-74
2022/07/16 02:38:14;;;;;;;1.70;1.05;;;14.40;99.90;;;;;;4939913;29;20027;-73
2022/07/16 02:40:43;;;;;;;1.45;1.10;;;14.50;99.90;;;;;;4940111;29;20502;-73
2022/07/16 02:43:11;;;;;;;1.35;1.05;;;14.60;99.90;;;;;;4957453;29;20039;-73
2022/07/16 02:45:41;;;;;;;2.35;1.10;;;14.60;99.90;;;;;;4957173;29;20035;-73
2022/07/16 02:48:10;;;;;;;1.67;1.00;;;14.80;99.90;;;;;;4939788;29;20054;-74
2022/07/16 02:50:38;;;;;;;5.18;1.45;;;14.80;99.90;;;;;;4939706;29;20377;-75
2022/07/16 02:53:05;;;;;;;2.33;1.10;;;14.80;99.90;;;;;;4956979;29;20027;-74
2022/07/16 02:55:33;;;;;;;2.15;0.70;;;14.80;99.90;;;;;;4957000;29;20033;-75
2022/07/16 02:58:01;;;;;;;2.38;1.10;;;14.80;99.90;;;;;;4939612;29;20035;-75
2022/07/16 03:00:29;;;;;;;2.40;1.48;;;14.80;99.90;;;;;;4940013;29;20149;-75
2022/07/16 03:02:57;;;;;;;1.92;1.30;;;14.80;99.90;;;;;;4956898;29;20024;-76
2022/07/16 03:05:25;;;;;;;2.35;1.13;;;14.70;99.90;;;;;;4956538;29;20127;-75
2022/07/16 03:07:52;;;;;;;2.60;1.10;;;14.70;99.90;;;;;;4956891;29;20027;-75
2022/07/16 03:10:20;;;;;;;2.53;1.20;;;14.90;99.90;;;;;;4939422;29;20031;-75
2022/07/16 03:12:48;;;;;;;1.40;1.00;;;14.90;99.90;;;;;;4957209;29;20027;-75
2022/07/16 03:15:15;;;;;;;2.88;1.05;;;14.90;99.90;;;;;;4956692;29;20023;-75
2022/07/16 03:17:42;;;;;;;1.77;1.20;;;15.00;99.90;;;;;;4956655;29;20023;-74
2022/07/16 03:20:12;;;;;;;1.70;1.15;;;15.00;99.90;;;;;;4956658;29;20429;-75
2022/07/16 03:22:47;;;;;;;3.28;1.50;;;14.90;99.90;;;;;;4939291;29;20476;-75
2022/07/16 03:25:18;;;;;;;2.05;1.17;;;14.90;99.90;;;;;;4956560;29;20020;-75
2022/07/16 03:27:45;;;;;;;3.88;1.50;;;14.90;99.90;;;;;;4939176;29;20051;-75
2022/07/16 03:30:13;;;;;;;2.80;2.00;;;15.00;99.90;;;;;;4956327;29;20384;-75
2022/07/16 03:32:41;;;;;;;3.65;1.67;;;15.10;99.90;;;;;;4956392;29;20020;-75
2022/07/16 03:35:09;;;;;;;1.17;1.00;;;15.10;99.90;;;;;;4955258;29;20032;-74
2022/07/16 03:38:57;;;;;;;1.80;0.80;;;15.10;99.90;;;;;;4956480;29;20173;-75
2022/07/16 03:40:24;;;;;;;2.65;1.15;;;15.10;99.90;;;;;;4955782;28;20023;-74
2022/07/16 03:42:52;;;;;;;1.30;0.88;;;15.20;99.90;;;;;;4956057;29;20110;-74
2022/07/16 03:45:20;;;;;;;1.88;1.00;;;15.30;99.90;;;;;;4938894;29;20019;-75
2022/07/16 03:47:47;;;;;;;1.75;1.02;;;15.30;99.90;;;;;;4956102;29;20020;-75
2022/07/16 03:50:14;;;;;;;1.42;1.00;;;15.40;99.90;;;;;;4955811;29;20036;-75
2022/07/16 03:52:42;;;;;;;2.80;1.35;;;15.40;99.90;;;;;;4955914;29;20051;-75
2022/07/16 03:55:09;;;;;;;1.73;1.00;;;15.50;99.90;;;;;;4955891;29;20036;-75
2022/07/16 03:57:37;;;;;;;2.03;1.05;;;15.70;99.90;;;;;;4955865;29;20102;-74
2022/07/16 04:00:05;;;;;;;1.55;1.00;;;15.80;99.90;;;;;;4938471;29;20030;-74
2022/07/16 04:02:33;;;;;;;1.50;0.98;;;16.00;99.90;;;;;;4956285;29;20412;-74
2022/07/16 04:05:00;;;;;;;1.25;1.00;;;15.90;99.90;;;;;;4955462;29;20027;-75
2022/07/16 04:07:27;;;;;;;1.92;1.10;;;15.90;99.90;;;;;;4955675;29;20109;-74
2022/07/16 04:09:55;;;;;;;0.73;0.60;;;15.80;99.90;;;;;;4955680;29;20570;-74
2022/07/16 04:12:25;;;;;;;1.85;1.00;;;15.90;99.90;;;;;;4955629;29;20030;-74
2022/07/16 04:14:53;;;;;;;1.55;0.80;;;15.90;99.90;;;;;;4955533;29;20035;-74
2022/07/16 04:17:20;;;;;;;0.90;0.70;;;15.90;99.90;;;;;;4955527;29;20378;-74
2022/07/16 04:19:48;;;;;;;1.23;0.70;;;16.00;99.90;;;;;;4955533;29;20451;-74
2022/07/16 04:22:15;;;;;;;1.00;0.50;;;16.00;99.90;;;;;;4955414;29;20098;-74
2022/07/16 04:24:43;;;;;;;1.23;0.50;;;16.10;99.90;;;;;;4955332;29;20033;-74
2022/07/16 04:27:10;;;;;;;2.03;0.60;;;16.10;99.90;;;;;;4938012;29;20031;-74
2022/07/16 04:29:38;;;;;;;1.45;0.65;;;16.30;99.90;;;;;;4955328;29;20034;-74
2022/07/16 04:32:05;;;;;;;1.13;0.68;;;16.60;99.90;;;;;;4955109;29;20030;-74
2022/07/16 04:34:36;;;;;;;2.13;0.70;;;16.90;99.90;;;;;;4954799;29;20451;-74
2022/07/16 04:37:03;;;;;;;2.05;0.80;;;17.00;99.90;;;;;;4955152;29;20078;-74
2022/07/16 04:39:30;;;;;;;1.27;0.60;;;17.00;99.90;;;;;;4955156;29;20083;-73
2022/07/16 04:41:58;;;;;;;1.17;0.88;;;16.90;99.90;;;;;;4955123;29;20019;-74
2022/07/16 04:44:25;;;;;;;0.80;0.50;;;16.70;99.90;;;;;;4954834;29;20392;-73
2022/07/16 04:46:53;;;;;;;0.93;0.70;;;16.40;99.90;;;;;;4937591;29;20031;-72
2022/07/16 04:49:20;;;;;;;1.05;0.50;;;16.20;99.90;;;;;;4954959;29;20560;-71
2022/07/16 04:51:47;;;;;;;0.98;0.60;;;16.00;99.90;;;;;;4937377;28;20034;-71
2022/07/16 04:54:15;;;;;;;1.35;0.57;;;15.80;99.90;;;;;;4937387;29;20027;-73
2022/07/16 04:56:42;;;;;;;0.80;0.68;;;15.90;99.90;;;;;;4954876;29;20030;-72
2022/07/16 04:59:09;;;;;;;1.95;0.65;;;15.90;99.90;;;;;;4955015;29;20388;-69
2022/07/16 05:01:37;;;;;;;1.30;0.75;;;16.10;99.90;;;;;;4937417;29;20034;-72
2022/07/16 05:04:04;;;;;;;2.33;0.60;;;16.20;99.90;;;;;;4955084;29;20089;-71
2022/07/16 05:06:32;;;;;;;0.60;0.40;;;16.10;99.90;;;;;;4954549;29;20078;-71
2022/07/16 05:09:01;;;;;;;1.05;0.70;;;16.20;99.90;;;;;;4954918;29;20029;-71
2022/07/16 05:11:29;;;;;;;1.50;0.70;;;16.10;99.90;;;;;;4954789;29;20026;-70
2022/07/16 05:13:57;;;;;;;1.55;0.70;;;16.10;99.90;;;;;;4954596;29;20556;-70
2022/07/16 05:16:24;;;;;;;1.20;0.70;;;15.90;99.90;;;;;;4954724;29;20082;-71
2022/07/16 05:18:52;;;;;;;2.58;0.60;;;15.80;99.90;;;;;;4937302;29;20070;-71
2022/07/16 05:21:20;;;;;;;1.52;1.00;;;15.70;99.90;;;;;;4954745;29;20431;-70
2022/07/16 05:23:47;;;;;;;1.23;0.75;;;15.60;99.90;;;;;;4954663;29;20046;-70
2022/07/16 05:26:14;;;;;;;1.30;0.85;;;15.50;99.90;;;;;;4955181;29;20090;-71
2022/07/16 05:28:42;;;;;;;1.25;0.80;;;15.50;99.90;;;;;;4954584;29;20023;-71
2022/07/16 05:31:09;;;;;;;1.63;0.77;;;15.50;99.90;;;;;;4954572;29;20047;-71
2022/07/16 05:33:36;;;;;;;1.55;1.10;;;15.40;99.90;;;;;;4954589;29;20500;-71
2022/07/16 05:36:04;;;;;;;2.28;2.08;;;15.40;99.90;;;;;;4954417;29;20081;-71
2022/07/16 05:38:31;;;;;;;2.30;2.00;;;15.30;99.90;;;;;;4937174;29;20114;-71
2022/07/16 05:40:59;;;;;;;1.73;1.38;;;15.30;99.90;;;;;;4937090;29;20084;-71
2022/07/16 05:43:26;;;;;;;1.92;1.60;;;15.20;99.90;;;;;;4937189;29;20108;-71
2022/07/16 05:45:54;;;;;;;3.45;1.38;;;15.10;99.90;;;;;;4954403;29;20031;-71
2022/07/16 05:48:21;;;;;;;2.22;1.45;;;15.00;99.90;;;;;;4954863;29;20099;-70
2022/07/16 05:50:48;;;;;;;1.30;1.05;;;14.90;99.90;;;;;;4937187;29;20051;-72
2022/07/16 05:53:16;;;;;;;1.45;1.05;;;14.80;99.90;;;;;;4937022;29;20031;-70
2022/07/16 05:55:43;;;;;;;1.40;1.00;;;14.60;99.90;;;;;;4954293;29;20027;-70
2022/07/16 05:58:10;;;;;;;1.38;0.93;;;14.50;99.90;;;;;;4954307;29;20019;-70
2022/07/16 06:00:38;;;;;;;3.83;2.80;;;14.40;99.90;;;;;;4954241;29;20050;-70
2022/07/16 06:03:05;;;;;;;6.30;5.50;;;14.30;99.90;;;;;;4954354;28;20055;-71
2022/07/16 06:05:33;;;;;;;4.03;2.03;;;14.30;99.90;;;;;;4939010;29;20106;-71
2022/07/16 06:08:00;;;;;;;2.97;1.73;;;14.20;99.90;;;;;;4958154;29;20480;-72
2022/07/16 06:10:31;;;;;;;1.70;1.10;;;14.10;99.90;;;;;;4957804;29;20062;-71
2022/07/16 06:12:58;;;;;;;2.50;0.80;;;14.00;99.90;;;;;;4957711;29;20028;-71
2022/07/16 06:15:26;;;;;;;17.10;12.57;;;13.90;99.90;;;;;;4957743;29;20412;-71
2022/07/16 06:17:53;;;;;;;287.70;214.45;;;13.90;99.90;;;;;;4957630;29;20472;-71
2022/07/16 06:20:20;;;;;;;34.72;24.77;;;13.80;99.90;;;;;;4957639;29;20114;-71
2022/07/16 06:22:48;;;;;;;18.55;13.73;;;13.70;99.90;;;;;;4940220;29;20027;-72
2022/07/16 06:25:15;;;;;;;12.57;9.15;;;13.70;99.90;;;;;;4957801;29;20037;-71
2022/07/16 06:27:46;;;;;;;9.68;6.65;;;13.50;99.90;;;;;;4957578;29;20019;-71
2022/07/16 06:30:14;;;;;;;33.35;25.27;;;13.50;99.90;;;;;;4957546;29;20030;-71
2022/07/16 06:32:42;;;;;;;93.93;80.70;;;13.50;99.90;;;;;;4957460;29;20039;-71
2022/07/16 06:35:11;;;;;;;62.15;52.10;;;13.50;99.90;;;;;;4939967;29;20031;-71
2022/07/16 06:37:38;;;;;;;17.17;13.75;;;13.40;99.90;;;;;;4957383;29;20015;-73
2022/07/16 06:40:06;;;;;;;11.30;8.88;;;13.30;99.90;;;;;;4957167;29;20068;-72
2022/07/16 06:42:35;;;;;;;20.08;14.80;;;13.30;99.90;;;;;;4957247;29;20023;-71
2022/07/16 06:45:02;;;;;;;9.90;7.55;;;13.20;99.90;;;;;;4939870;29;20031;-72
2022/07/16 06:47:30;;;;;;;6.65;4.72;;;13.10;99.90;;;;;;4939824;29;20035;-73
2022/07/16 06:49:57;;;;;;;9.52;7.50;;;13.00;99.90;;;;;;4957363;29;20024;-72
2022/07/16 06:52:24;;;;;;;11.27;9.20;;;13.00;99.90;;;;;;4939781;29;20046;-72
2022/07/16 06:54:51;;;;;;;12.50;9.73;;;12.90;99.90;;;;;;4956896;29;20058;-72
2022/07/16 06:57:22;;;;;;;11.00;9.30;;;12.80;99.90;;;;;;4957021;29;20054;-72
2022/07/16 06:59:49;;;;;;;;;;;12.70;99.90;;;;;;4940143;29;20048;-72
2022/07/16 07:02:16;;;;;;;13.32;11.32;;;12.70;99.90;;;;;;4939670;29;19913;-72
2022/07/16 07:04:43;;;;;;;9.18;7.50;;;12.60;99.90;;;;;;4939503;29;20031;-72
2022/07/16 07:07:11;;;;;;;4.68;3.95;;;12.50;99.90;;;;;;4939313;29;20059;-73
2022/07/16 07:09:39;;;;;;;3.85;3.30;;;12.50;99.90;;;;;;4939474;29;20039;-73
2022/07/16 07:12:06;;;;;;;8.40;7.55;;;12.60;99.90;;;;;;4956723;29;20051;-73
2022/07/16 07:14:34;;;;;;;5.05;4.18;;;12.40;99.90;;;;;;4939449;29;20444;-73
2022/07/16 07:17:02;;;;;;;4.82;4.00;;;12.40;99.90;;;;;;4956309;29;20114;-73
2022/07/16 07:19:29;;;;;;;5.60;3.60;;;12.30;99.90;;;;;;4956694;29;20075;-72
2022/07/16 07:21:57;;;;;;;5.85;3.65;;;12.30;99.90;;;;;;4939264;29;20030;-73
2022/07/16 07:24:24;;;;;;;3.78;3.03;;;12.30;99.90;;;;;;4956523;29;20038;-73
2022/07/16 07:26:51;;;;;;;5.00;3.85;;;12.20;99.90;;;;;;4939274;29;20078;-73
2022/07/16 07:29:19;;;;;;;5.55;3.92;;;12.20;99.90;;;;;;4956474;29;20431;-73
2022/07/16 07:31:46;;;;;;;5.28;4.03;;;12.20;99.90;;;;;;4956342;29;20102;-73
2022/07/16 07:34:13;;;;;;;5.10;4.15;;;12.10;99.90;;;;;;4956259;29;20523;-73
2022/07/16 07:36:41;;;;;;;5.43;4.80;;;12.00;99.90;;;;;;4956379;29;20089;-74
2022/07/16 07:39:08;;;;;;;5.55;4.30;;;12.00;99.90;;;;;;4956242;29;20124;-73
2022/07/16 07:41:37;;;;;;;4.78;3.85;;;11.90;99.90;;;;;;4938861;29;20027;-73
2022/07/16 07:44:04;;;;;;;5.90;3.50;;;11.90;99.90;;;;;;4938732;29;20599;-73
2022/07/16 07:46:32;;;;;;;4.93;3.50;;;11.90;99.90;;;;;;4956131;29;20105;-73
2022/07/16 07:48:59;;;;;;;5.65;4.00;;;12.00;99.90;;;;;;4938779;29;20499;-73
2022/07/16 07:51:26;;;;;;;5.13;3.75;;;11.90;99.90;;;;;;4955976;29;20035;-73
2022/07/16 07:53:54;;;;;;;4.93;3.50;;;12.00;99.90;;;;;;4955870;29;20480;-73
2022/07/16 07:56:21;;;;;;;6.25;3.70;;;11.90;99.90;;;;;;4955850;29;20019;-73
2022/07/16 07:58:48;;;;;;;6.88;3.42;;;12.10;99.90;;;;;;4956225;29;20019;-73
2022/07/16 08:01:16;;;;;;;5.07;3.78;;;12.00;99.90;;;;;;4955807;29;20015;-73
2022/07/16 08:03:43;;;;;;;5.00;3.55;;;12.00;99.90;;;;;;4938486;29;20050;-73
2022/07/16 08:06:10;;;;;;;4.47;3.55;;;11.90;99.90;;;;;;4955437;29;20051;-73
2022/07/16 08:08:37;;;;;;;5.70;3.90;;;11.90;99.90;;;;;;4938428;29;20122;-73
2022/07/16 08:11:05;;;;;;;4.90;4.05;;;11.90;99.90;;;;;;4956156;29;20033;-72
2022/07/16 08:13:33;;;;;;;8.23;4.93;;;12.10;99.90;;;;;;4956013;29;20023;-72
2022/07/16 08:16:00;;;;;;;5.80;4.07;;;12.00;99.90;;;;;;4955518;29;20027;-73
2022/07/16 08:18:27;;;;;;;5.57;4.43;;;12.10;99.90;;;;;;4955503;29;20023;-73
2022/07/16 08:20:55;;;;;;;5.68;3.90;;;12.00;99.90;;;;;;4955876;29;20023;-73
2022/07/16 08:26:07;;;;;;;4.60;3.25;;;11.90;99.90;;;;;;4955444;29;20066;-73
2022/07/16 08:28:40;;;;;;;20.23;4.20;;;11.90;99.90;;;;;;4954328;28;20086;-73
2022/07/16 08:31:08;;;;;;;3.92;2.90;;;11.90;99.90;;;;;;4938138;29;20028;-71
2022/07/16 08:33:35;;;;;;;3.63;2.80;;;12.00;99.90;;;;;;4937894;29;20031;-72
2022/07/16 08:36:03;;;;;;;3.95;2.90;;;12.10;99.90;;;;;;4937887;29;20019;-72
2022/07/16 08:38:30;;;;;;;4.05;2.38;;;12.10;99.90;;;;;;4955161;29;20023;-74
2022/07/16 08:40:58;;;;;;;3.63;2.15;;;12.10;99.90;;;;;;4937822;29;20026;-72
2022/07/16 08:43:25;;;;;;;3.67;2.03;;;12.10;99.90;;;;;;4938098;29;20390;-73
2022/07/16 08:45:53;;;;;;;3.72;1.60;;;12.20;99.90;;;;;;4955087;29;20046;-72
2022/07/16 08:48:20;;;;;;;2.25;1.80;;;12.20;99.90;;;;;;4937797;29;20031;-72
2022/07/16 08:50:49;;;;;;;2.13;1.92;;;12.20;99.90;;;;;;4937757;29;20028;-72
2022/07/16 08:53:22;;;;;;;1.70;1.60;;;12.20;99.90;;;;;;4954877;29;20110;-71
2022/07/16 08:55:55;;;;;;;2.67;1.60;;;12.20;99.90;;;;;;4937631;29;20027;-71
2022/07/16 08:58:23;;;;;;;3.90;1.85;;;12.30;99.90;;;;;;4954932;29;20015;-72
2022/07/16 09:00:50;;;;;;;4.13;2.20;;;12.30;99.90;;;;;;4937509;29;20036;-72
2022/07/16 09:03:18;;;;;;;2.75;2.15;;;12.30;99.90;;;;;;4954904;29;20022;-72
2022/07/16 09:05:49;;;;;;;2.45;1.70;;;12.30;99.90;;;;;;4937322;29;20047;-71
2022/07/16 09:08:18;;;;;;;;;;;12.30;99.90;;;;;;4955214;29;20027;-71
2022/07/16 09:10:46;;;;;;;2.30;1.60;;;12.30;99.90;;;;;;4937482;29;19906;-71
2022/07/16 09:13:14;;;;;;;3.05;1.60;;;12.30;99.90;;;;;;4954638;29;20110;-71
2022/07/16 09:15:44;;;;;;;1.88;1.60;;;12.40;99.90;;;;;;4954752;29;20026;-71
2022/07/16 09:18:17;;;;;;;2.17;1.42;;;12.40;99.90;;;;;;4954745;29;20075;-70
2022/07/16 09:20:58;;;;;;;3.13;1.48;;;12.40;99.90;;;;;;4954747;29;20503;-71
2022/07/16 09:23:34;;;;;;;2.63;1.58;;;12.40;99.90;;;;;;4937239;29;20030;-71
2022/07/16 09:26:05;;;;;;;1.45;1.15;;;12.40;99.90;;;;;;4937310;29;20038;-71
2022/07/16 09:28:50;;;;;;;1.73;1.20;;;12.50;99.90;;;;;;4937268;29;20027;-71
2022/07/16 09:31:38;;;;;;;2.90;1.13;;;12.60;99.90;;;;;;4954553;29;20023;-71
2022/07/16 09:34:11;;;;;;;1.27;0.98;;;12.70;99.90;;;;;;4954483;29;20540;-72
2022/07/16 09:36:54;;;;;;;1.40;1.20;;;12.80;99.90;;;;;;4937299;29;20074;-71
2022/07/16 09:39:22;;;;;;;1.50;1.00;;;12.90;99.90;;;;;;4956953;28;20480;-72
2022/07/16 09:41:49;;;;;;;1.75;0.68;;;13.00;99.90;;;;;;4958594;29;20148;-72
2022/07/16 09:44:19;;;;;;;1.52;0.77;;;13.10;99.90;;;;;;4958361;29;20107;-70
2022/07/16 09:47:02;;;;;;;1.23;0.80;;;13.10;99.90;;;;;;4958643;29;20566;-71
2022/07/16 09:49:31;;;;;;;2.72;0.90;;;13.10;99.90;;;;;;4941594;29;20036;-71
2022/07/16 09:51:59;;;;;;;1.30;0.82;;;13.20;99.90;;;;;;4958287;29;20024;-72
2022/07/16 09:54:37;;;;;;;0.93;0.63;;;13.20;99.90;;;;;;4940726;29;20374;-72
2022/07/16 09:57:18;;;;;;;1.88;0.70;;;13.30;99.90;;;;;;4958172;29;20024;-71
2022/07/16 09:59:46;;;;;;;1.85;0.70;;;13.30;99.90;;;;;;4958568;29;20027;-71
2022/07/16 10:02:14;;;;;;;1.05;0.75;;;13.40;99.90;;;;;;4940680;29;20082;-73
2022/07/16 10:04:42;;;;;;;1.33;0.80;;;13.60;99.90;;;;;;4957831;29;20103;-72
2022/07/16 10:07:10;;;;;;;1.23;0.70;;;13.70;99.90;;;;;;4940780;29;20059;-71
2022/07/16 10:09:37;;;;;;;1.20;0.70;;;13.80;99.90;;;;;;4957944;29;20031;-72
2022/07/16 10:12:13;;;;;;;1.08;0.50;;;13.80;99.90;;;;;;4958154;29;20051;-73
2022/07/16 10:14:45;;;;;;;0.75;0.57;;;14.00;99.90;;;;;;4958301;29;20482;-72
2022/07/16 10:17:17;;;;;;;1.52;0.63;;;14.00;99.90;;;;;;4957908;29;20039;-73
2022/07/16 10:19:45;;;;;;;0.85;0.60;;;14.10;99.90;;;;;;4940615;29;20059;-72
2022/07/16 10:22:30;;;;;;;0.47;0.38;;;13.90;99.90;;;;;;4940431;29;20023;-73
2022/07/16 10:24:58;;;;;;;0.60;0.52;;;13.80;99.90;;;;;;4957824;29;20033;-72
2022/07/16 10:27:35;;;;;;;0.43;0.38;;;13.70;99.90;;;;;;4957760;29;20019;-72
2022/07/16 10:30:18;;;;;;;1.02;0.50;;;13.80;99.90;;;;;;4940443;29;20031;-71
2022/07/16 10:33:06;;;;;;;1.48;0.40;;;13.80;99.90;;;;;;4940357;29;20031;-74
2022/07/16 10:35:47;;;;;;;0.50;0.40;;;13.70;99.90;;;;;;4957773;29;20082;-73
2022/07/16 10:38:27;;;;;;;0.95;0.45;;;13.80;99.90;;;;;;4940376;29;20485;-74
2022/07/16 10:41:15;;;;;;;1.27;0.50;;;13.80;99.90;;;;;;4940216;29;20369;-73
2022/07/16 10:44:03;;;;;;;0.68;0.40;;;13.70;99.90;;;;;;4957804;29;20030;-72
2022/07/16 10:46:30;;;;;;;0.43;0.43;;;13.60;99.90;;;;;;4957349;29;20031;-73
2022/07/16 10:48:58;;;;;;;0.88;0.50;;;13.60;99.90;;;;;;4940069;29;20027;-73
2022/07/16 10:51:27;;;;;;;0.88;0.55;;;13.60;99.90;;;;;;4939066;29;20031;-72
2022/07/16 10:53:57;;;;;;;1.58;0.70;;;13.50;99.90;;;;;;4957241;29;20055;-72
2022/07/16 10:56:45;;;;;;;0.70;0.65;;;13.30;99.90;;;;;;4957628;29;20015;-73
2022/07/16 10:59:24;;;;;;;1.05;0.50;;;13.40;99.90;;;;;;4940004;29;20058;-72
2022/07/16 11:01:54;;;;;;;0.60;0.50;;;13.30;99.90;;;;;;4939945;29;20037;-73
2022/07/16 11:04:39;;;;;;;0.40;0.40;;;13.30;99.90;;;;;;4957016;29;20109;-72
2022/07/16 11:07:15;;;;;;;1.20;0.50;;;13.20;99.90;;;;;;4939569;29;20062;-73
2022/07/16 11:09:48;;;;;;;1.52;0.43;;;13.10;99.90;;;;;;4939715;29;20032;-72
2022/07/16 11:12:24;;;;;;;0.55;0.50;;;13.20;99.90;;;;;;4957020;29;20077;-72
2022/07/16 11:14:53;;;;;;;2.45;0.38;;;13.10;99.90;;;;;;4939859;29;20027;-72
2022/07/16 11:17:23;;;;;;;0.88;0.43;;;13.20;99.90;;;;;;4939604;29;20476;-72
2022/07/16 11:19:55;;;;;;;1.42;0.50;;;13.10;99.90;;;;;;4939457;29;20114;-71
2022/07/16 11:22:24;;;;;;;1.05;0.70;;;13.10;99.90;;;;;;4939639;29;20031;-71
2022/07/16 11:24:53;;;;;;;1.85;1.00;;;13.10;99.90;;;;;;4956738;29;20038;-71
2022/07/16 11:27:39;;;;;;;2.00;0.85;;;13.00;99.90;;;;;;4956645;29;20436;-71
2022/07/16 11:30:12;;;;;;;0.57;0.40;;;13.00;99.90;;;;;;4939278;29;20043;-71
2022/07/16 11:32:47;;;;;;;1.05;0.73;;;13.00;99.90;;;;;;4956873;29;20051;-71
2022/07/16 11:35:15;;;;;;;0.50;0.40;;;12.90;99.90;;;;;;4939175;29;20024;-72
2022/07/16 11:37:53;;;;;;;0.70;0.40;;;12.80;99.90;;;;;;4956551;29;20033;-71
2022/07/16 11:40:21;;;;;;;0.60;0.40;;;12.80;99.90;;;;;;4939083;29;20027;-71
2022/07/16 11:42:59;;;;;;;0.55;0.40;;;12.70;99.90;;;;;;4939088;29;20066;-70
2022/07/16 11:45:35;;;;;;;0.45;0.40;;;12.70;99.90;;;;;;4939048;29;20059;-72
2022/07/16 11:48:12;;;;;;;0.80;0.30;;;12.60;99.90;;;;;;4956303;29;20392;-72
2022/07/16 11:50:44;;;;;;;1.40;0.73;;;12.40;99.90;;;;;;4956531;29;20026;-71
2022/07/16 11:53:12;;;;;;;0.38;0.30;;;12.40;99.90;;;;;;4938870;29;20030;-71
2022/07/16 11:55:46;;;;;;;0.88;0.45;;;12.30;99.90;;;;;;4938835;29;20499;-71
2022/07/16 11:58:15;;;;;;;0.60;0.40;;;12.20;99.90;;;;;;4938915;29;20019;-71
2022/07/16 12:00:49;;;;;;;3.10;0.50;;;12.10;99.90;;;;;;4956318;29;20158;-71
2022/07/16 12:03:17;;;;;;;0.85;0.40;;;12.00;99.90;;;;;;4955892;28;20020;-71
2022/07/16 12:05:45;;;;;;;0.55;0.52;;;11.90;99.90;;;;;;4938290;29;20091;-71
2022/07/16 12:08:13;;;;;;;1.08;0.60;;;11.80;99.90;;;;;;4938395;29;20121;-72
2022/07/16 12:10:41;;;;;;;1.08;0.50;;;11.70;99.90;;;;;;4955702;29;20031;-72
2022/07/16 12:13:10;;;;;;;0.80;0.38;;;11.60;99.90;;;;;;4938394;29;20539;-72
2022/07/16 12:15:57;;;;;;;0.55;0.40;;;11.50;99.90;;;;;;4938780;29;20122;-72
2022/07/16 12:18:25;;;;;;;0.60;0.40;;;11.50;99.90;;;;;;4955576;29;20102;-71
2022/07/16 12:20:53;;;;;;;0.40;0.40;;;11.40;99.90;;;;;;4955589;29;20026;-72
2022/07/16 12:23:35;;;;;;;1.35;0.65;;;11.40;99.90;;;;;;4955555;29;20023;-71
2022/07/16 12:26:06;;;;;;;1.70;0.70;;;11.40;99.90;;;;;;4955398;29;20024;-72
2022/07/16 12:28:34;;;;;;;1.60;0.63;;;11.30;99.90;;;;;;4938080;29;20027;-71
2022/07/16 12:31:11;;;;;;;0.75;0.50;;;11.30;99.90;;;;;;4955677;29;20114;-71
2022/07/16 12:33:39;;;;;;;0.65;0.40;;;11.30;99.90;;;;;;4955389;29;20065;-71
2022/07/16 12:36:12;;;;;;;1.27;0.80;;;11.20;99.90;;;;;;4955235;29;20031;-71
2022/07/16 12:38:46;;;;;;;2.20;0.57;;;11.10;99.90;;;;;;4938075;29;20027;-70
2022/07/16 12:41:21;;;;;;;1.05;0.60;;;11.10;99.90;;;;;;4955601;29;20384;-71
2022/07/16 12:43:53;;;;;;;0.80;0.60;;;11.00;99.90;;;;;;4955437;29;20019;-71
2022/07/16 12:46:24;;;;;;;0.90;0.70;;;10.90;99.90;;;;;;4937887;29;20027;-70
2022/07/16 12:48:57;;;;;;;1.13;0.70;;;10.80;99.90;;;;;;4955088;29;20027;-70
2022/07/16 12:51:27;;;;;;;2.35;0.60;;;10.70;99.90;;;;;;4955137;29;20035;-70
2022/07/16 12:53:56;;;;;;;0.70;0.50;;;10.70;99.90;;;;;;4937569;29;20031;-71
2022/07/16 12:59:10;;;;;;;0.90;0.55;;;10.50;99.90;;;;;;4955287;29;20242;-70
2022/07/16 13:01:39;;;;;;;1.63;0.63;;;10.50;99.90;;;;;;4937636;29;20027;-71
2022/07/16 13:04:06;;;;;;;1.58;0.63;;;10.50;99.90;;;;;;4937627;29;20062;-70
2022/07/16 13:06:34;;;;;;;0.57;0.50;;;10.60;99.90;;;;;;4954569;29;20058;-72